Time;durP1;ratioP1;P1;durP2;ratioP2;P2;SDS_P1;SDS_P2;PMS_P1;PMS_P2;Temp;Humidity;BMP_temperature;BMP_pressure;BME280_temperature;BME280_humidity;BME280_pressure;Samples;Min_cycle;Max_cycle;Signal;HPM_P1;HPM_P2
2023/04/28 00:01:37;;;;;;;2.17;1.53;;;;;;;7.26;100.00;99405.44;5131627;27;20639;-74
2023/04/28 00:04:04;;;;;;;1.83;1.27;;;;;;;7.16;100.00;99407.66;5131129;27;20260;-74
2023/04/28 00:06:31;;;;;;;2.17;1.60;;;;;;;7.27;100.00;99412.16;5131490;27;20709;-74
2023/04/28 00:08:57;;;;;;;2.13;1.77;;;;;;;7.20;100.00;99421.84;5131549;27;20261;-74
2023/04/28 00:11:24;;;;;;;1.97;1.67;;;;;;;7.21;100.00;99423.50;5131703;27;20196;-74
2023/04/28 00:13:52;;;;;;;4.40;1.77;;;;;;;7.21;100.00;99418.41;5131272;27;20295;-74
2023/04/28 00:16:19;;;;;;;2.63;1.77;;;;;;;7.24;100.00;99417.41;5131293;27;20201;-73
2023/04/28 00:18:46;;;;;;;2.37;1.20;;;;;;;7.29;100.00;99420.53;5131420;27;20231;-73
2023/04/28 00:21:13;;;;;;;1.50;1.37;;;;;;;7.22;100.00;99421.78;5131250;27;20205;-73
2023/04/28 00:23:40;;;;;;;1.20;1.10;;;;;;;7.23;100.00;99425.94;5131168;27;20281;-73
2023/04/28 00:26:06;;;;;;;1.00;0.83;;;;;;;7.20;100.00;99426.13;5131141;27;20292;-74
2023/04/28 00:28:33;;;;;;;2.73;1.30;;;;;;;7.24;100.00;99427.59;5131135;27;20280;-73
2023/04/28 00:31:01;;;;;;;1.63;1.50;;;;;;;7.32;100.00;99432.28;5131040;27;20273;-73
2023/04/28 00:33:28;;;;;;;1.63;0.80;;;;;;;7.29;100.00;99430.72;5131273;27;20207;-74
2023/04/28 00:35:59;;;;;;;1.43;1.20;;;;;;;7.20;100.00;99428.66;5130741;27;20216;-73
2023/04/28 00:38:26;;;;;;;3.23;1.50;;;;;;;7.11;100.00;99436.78;5131285;27;20193;-74
2023/04/28 00:40:53;;;;;;;1.97;1.47;;;;;;;7.09;100.00;99433.47;5130927;27;20667;-73
2023/04/28 00:43:20;;;;;;;1.73;1.63;;;;;;;7.16;100.00;99429.75;5130784;27;20603;-74
2023/04/28 00:45:47;;;;;;;1.23;1.13;;;;;;;7.09;100.00;99438.56;5130647;27;20217;-74
2023/04/28 00:48:15;;;;;;;1.77;1.17;;;;;;;7.17;100.00;99439.00;5131104;27;20188;-74
2023/04/28 00:50:42;;;;;;;1.43;1.30;;;;;;;7.29;100.00;99448.50;5130616;27;20216;-73
2023/04/28 00:53:10;;;;;;;1.83;1.30;;;;;;;7.20;100.00;99451.53;5130643;27;20637;-73
2023/04/28 00:55:38;;;;;;;1.57;1.30;;;;;;;7.19;100.00;99444.84;5130568;27;20224;-73
2023/04/28 00:58:05;;;;;;;1.97;1.50;;;;;;;7.23;100.00;99451.38;5130687;27;20197;-74
2023/04/28 01:00:32;;;;;;;1.43;1.33;;;;;;;7.23;100.00;99454.75;5130429;27;20305;-73
2023/04/28 01:02:59;;;;;;;1.13;1.00;;;;;;;7.25;100.00;99454.69;5130613;28;20668;-73
2023/04/28 01:05:29;;;;;;;2.20;1.23;;;;;;;7.24;100.00;99453.00;5130355;28;20232;-74
2023/04/28 01:07:56;;;;;;;1.00;1.00;;;;;;;7.22;100.00;99462.47;5130830;27;20212;-74
2023/04/28 01:10:23;;;;;;;1.27;0.83;;;;;;;7.22;100.00;99465.00;5130422;28;20212;-73
2023/04/28 01:12:49;;;;;;;1.00;1.00;;;;;;;7.06;100.00;99459.06;5130583;28;20694;-74
2023/04/28 01:15:18;;;;;;;1.40;1.10;;;;;;;7.12;100.00;99468.91;5130397;28;20228;-73
2023/04/28 01:17:45;;;;;;;0.70;0.70;;;;;;;7.02;100.00;99464.31;5130451;27;20197;-74
2023/04/28 01:20:13;;;;;;;2.60;1.40;;;;;;;6.87;100.00;99469.38;5130536;27;20727;-74
2023/04/28 01:22:41;;;;;;;1.40;1.30;;;;;;;6.88;100.00;99466.75;5130644;27;20664;-74
2023/04/28 01:25:10;;;;;;;1.93;1.20;;;;;;;6.94;100.00;99466.41;5130273;28;20236;-73
2023/04/28 01:27:36;;;;;;;1.10;0.93;;;;;;;6.96;100.00;99468.91;5130137;28;20271;-73
2023/04/28 01:30:04;;;;;;;2.73;1.27;;;;;;;6.83;100.00;99468.69;5130338;28;20278;-73
2023/04/28 01:32:30;;;;;;;4.90;1.37;;;;;;;6.82;100.00;99469.59;5130283;28;20553;-73
2023/04/28 01:34:57;;;;;;;1.23;1.13;;;;;;;6.84;100.00;99470.34;5130372;28;20225;-73
2023/04/28 01:37:24;;;;;;;4.00;1.13;;;;;;;6.92;100.00;99478.41;5130308;28;20192;-73
2023/04/28 01:39:51;;;;;;;2.30;1.30;;;;;;;6.84;100.00;99470.34;5130561;28;20221;-73
2023/04/28 01:42:19;;;;;;;1.37;0.70;;;;;;;6.82;100.00;99474.69;5130038;28;20197;-73
2023/04/28 01:44:46;;;;;;;1.17;1.07;;;;;;;6.83;100.00;99470.41;5130049;28;20236;-73
2023/04/28 01:47:12;;;;;;;0.53;0.50;;;;;;;6.76;100.00;99467.38;5130482;27;20193;-73
2023/04/28 01:49:39;;;;;;;1.60;1.20;;;;;;;6.79;100.00;99467.22;5130181;28;20224;-73
2023/04/28 01:52:06;;;;;;;1.80;0.83;;;;;;;6.69;100.00;99466.88;5130311;28;20302;-73
2023/04/28 01:54:33;;;;;;;3.93;1.03;;;;;;;6.73;100.00;99467.53;5130457;28;20623;-74
2023/04/28 01:57:01;;;;;;;0.97;0.87;;;;;;;6.74;100.00;99479.31;5130286;28;20193;-73
2023/04/28 01:59:29;;;;;;;2.37;1.70;;;;;;;6.58;100.00;99469.94;5130037;28;20221;-73
2023/04/28 02:01:56;;;;;;;1.77;1.43;;;;;;;6.65;100.00;99467.09;5130339;27;20201;-73
2023/04/28 02:04:22;;;;;;;3.10;1.10;;;;;;;6.63;100.00;99463.78;5129877;28;20236;-73
2023/04/28 02:06:49;;;;;;;0.57;0.57;;;;;;;6.53;100.00;99466.78;5132604;27;20316;-73
2023/04/28 02:09:16;;;;;;;0.70;0.70;;;;;;;6.42;100.00;99469.03;5133907;27;20212;-73
2023/04/28 02:11:43;;;;;;;5.63;1.27;;;;;;;6.51;100.00;99467.75;5133739;27;20192;-73
2023/04/28 02:14:09;;;;;;;1.07;1.03;;;;;;;6.48;100.00;99468.72;5134025;27;20905;-73
2023/04/28 02:16:38;;;;;;;2.33;1.40;;;;;;;6.42;100.00;99469.03;5133473;27;20283;-73
2023/04/28 02:19:04;;;;;;;0.90;0.80;;;;;;;6.30;100.00;99469.63;5133678;27;20204;-73
2023/04/28 02:21:31;;;;;;;1.20;1.00;;;;;;;6.20;100.00;99473.53;5133606;27;20724;-73
2023/04/28 02:23:58;;;;;;;0.87;0.67;;;;;;;6.25;100.00;99466.50;5133336;27;20228;-73
2023/04/28 02:26:25;;;;;;;0.97;0.93;;;;;;;6.20;100.00;99476.06;5133692;27;20196;-73
2023/04/28 02:28:52;;;;;;;1.47;0.90;;;;;;;6.23;100.00;99478.47;5133325;27;20193;-73
2023/04/28 02:31:19;;;;;;;1.30;1.03;;;;;;;6.17;100.00;99473.66;5133375;27;20197;-73
2023/04/28 02:33:48;;;;;;;0.93;0.87;;;;;;;6.04;100.00;99479.31;5133683;27;20279;-73
2023/04/28 02:36:14;;;;;;;2.73;1.33;;;;;;;5.98;100.00;99478.78;5133326;27;20579;-74
2023/04/28 02:38:41;;;;;;;1.90;1.80;;;;;;;5.97;100.00;99488.13;5133493;27;20237;-73
2023/04/28 02:41:09;;;;;;;0.67;0.67;;;;;;;6.06;100.00;99492.75;5133245;27;20277;-73
2023/04/28 02:43:35;;;;;;;1.43;1.30;;;;;;;6.00;100.00;99493.06;5133217;27;20197;-73
2023/04/28 02:46:02;;;;;;;3.13;1.23;;;;;;;6.05;100.00;99491.13;5132955;27;20601;-73
2023/04/28 02:48:29;;;;;;;2.30;1.23;;;;;;;6.03;100.00;99492.91;5133318;27;20196;-73
2023/04/28 02:50:57;;;;;;;1.93;1.50;;;;;;;6.06;100.00;99492.75;5133220;27;20212;-73
2023/04/28 02:53:24;;;;;;;1.43;1.17;;;;;;;6.07;100.00;99499.47;5132902;27;20800;-73
2023/04/28 02:55:51;;;;;;;1.90;1.10;;;;;;;6.10;100.00;99504.41;5132821;27;20632;-73
2023/04/28 02:58:18;;;;;;;1.43;1.33;;;;;;;6.06;100.00;99508.00;5132795;27;20193;-74
2023/04/28 03:00:45;;;;;;;1.17;1.07;;;;;;;6.10;100.00;99512.03;5133219;27;20316;-73
2023/04/28 03:03:12;;;;;;;2.97;1.40;;;;;;;6.15;100.00;99527.06;5132620;27;20269;-73
2023/04/28 03:05:38;;;;;;;1.50;1.10;;;;;;;6.23;100.00;99519.09;5132412;27;20236;-73
2023/04/28 03:08:07;;;;;;;3.13;1.63;;;;;;;6.23;100.00;99534.31;5132662;27;20196;-73
2023/04/28 03:10:33;;;;;;;1.87;1.27;;;;;;;6.24;100.00;99533.41;5132794;27;20287;-73
2023/04/28 03:13:00;;;;;;;2.37;1.80;;;;;;;6.27;100.00;99535.81;5132714;27;20203;-73
2023/04/28 03:15:27;;;;;;;0.80;0.77;;;;;;;6.37;100.00;99542.09;5132571;27;20227;-73
2023/04/28 03:17:54;;;;;;;3.83;2.00;;;;;;;6.33;100.00;99543.13;5131228;27;20702;-73
2023/04/28 03:20:21;;;;;;;1.07;1.00;;;;;;;6.31;100.00;99550.00;5132228;27;20278;-73
2023/04/28 03:22:47;;;;;;;1.53;1.30;;;;;;;6.34;100.00;99558.31;5132444;27;20257;-74
2023/04/28 03:25:16;;;;;;;1.37;1.17;;;;;;;6.36;100.00;99560.75;5132211;27;20243;-74
2023/04/28 03:27:42;;;;;;;0.93;0.87;;;;;;;6.32;100.00;99564.34;5132366;27;20612;-74
2023/04/28 03:30:10;;;;;;;1.87;1.33;;;;;;;6.28;100.00;99566.22;5132156;27;20292;-74
2023/04/28 03:32:37;;;;;;;3.53;1.70;;;;;;;6.25;100.00;99573.94;5131984;27;20204;-74
2023/04/28 03:35:04;;;;;;;3.57;1.87;;;;;;;6.36;100.00;99581.06;5132130;27;20220;-73
2023/04/28 03:37:30;;;;;;;1.20;1.03;;;;;;;6.41;100.00;99584.22;5131778;27;20262;-73
2023/04/28 03:39:57;;;;;;;2.67;1.73;;;;;;;6.43;100.00;99585.00;5132181;27;20225;-73
2023/04/28 03:42:27;;;;;;;1.07;0.83;;;;;;;6.46;100.00;99589.09;5131914;27;20216;-73
2023/04/28 03:44:54;;;;;;;2.20;1.60;;;;;;;6.50;100.00;99593.94;5131911;27;20272;-73
2023/04/28 03:47:21;;;;;;;2.23;1.43;;;;;;;6.50;100.00;99600.75;5131627;27;20253;-74
2023/04/28 03:49:48;;;;;;;1.47;1.10;;;;;;;6.46;100.00;99605.16;5131809;27;20224;-74
2023/04/28 03:52:15;;;;;;;1.47;1.20;;;;;;;6.42;100.00;99606.19;5131861;27;20197;-74
2023/04/28 03:54:41;;;;;;;1.67;1.57;;;;;;;6.42;100.00;99606.19;5131703;27;20220;-74
2023/04/28 03:57:08;;;;;;;0.83;0.83;;;;;;;6.46;100.00;99607.69;5131507;27;20312;-74
2023/04/28 03:59:36;;;;;;;1.77;1.43;;;;;;;6.61;100.00;99610.41;5131662;27;20271;-73
2023/04/28 04:02:03;;;;;;;1.57;1.40;;;;;;;6.66;100.00;99619.47;5131487;27;20205;-73
2023/04/28 04:04:30;;;;;;;1.27;1.17;;;;;;;6.80;100.00;99616.25;5131527;27;20301;-74
2023/04/28 04:06:57;;;;;;;4.60;2.10;;;;;;;6.79;100.00;99622.22;5131695;27;20276;-74
2023/04/28 04:09:24;;;;;;;1.33;1.20;;;;;;;6.96;100.00;99621.44;5131478;27;20220;-74
2023/04/28 04:11:50;;;;;;;1.37;0.97;;;;;;;7.06;100.00;99624.31;5131302;27;20204;-74
2023/04/28 04:14:17;;;;;;;1.27;1.10;;;;;;;7.10;100.00;99625.81;5131627;27;20216;-73
2023/04/28 04:16:47;;;;;;;1.40;1.30;;;;;;;7.03;100.00;99628.66;5131453;27;20265;-74
2023/04/28 04:19:14;;;;;;;1.80;1.50;;;;;;;7.01;100.00;99637.25;5130992;27;20708;-74
2023/04/28 04:21:41;;;;;;;1.50;0.90;;;;;;;7.03;100.00;99638.81;5131297;27;20203;-74
2023/04/28 04:24:08;;;;;;;1.53;1.30;;;;;;;7.09;100.00;99636.88;5131213;27;20633;-74
2023/04/28 04:26:34;;;;;;;4.37;1.60;;;;;;;7.22;100.00;99643.03;5131058;27;20200;-74
2023/04/28 04:29:01;;;;;;;1.83;1.23;;;;;;;7.18;100.00;99641.50;5130383;27;20189;-74
2023/04/28 04:31:28;;;;;;;2.53;1.40;;;;;;;7.28;100.00;99642.72;5131010;27;20196;-74
2023/04/28 04:33:56;;;;;;;3.40;1.90;;;;;;;7.33;100.00;99645.00;5131313;27;20216;-73
2023/04/28 04:36:23;;;;;;;2.57;1.83;;;;;;;7.21;100.00;99646.44;5130961;27;20203;-73
2023/04/28 04:38:50;;;;;;;4.80;2.50;;;;;;;7.15;100.00;99646.75;5130666;27;20199;-73
2023/04/28 04:41:17;;;;;;;1.73;1.50;;;;;;;7.22;100.00;99640.47;5131086;27;20200;-74
2023/04/28 04:43:43;;;;;;;1.67;1.40;;;;;;;7.09;100.00;99639.44;5131109;27;20668;-73
2023/04/28 04:46:10;;;;;;;1.40;1.30;;;;;;;7.22;100.00;99633.66;5130621;27;20236;-74
2023/04/28 04:48:37;;;;;;;1.87;1.60;;;;;;;6.93;100.00;99637.66;5130994;27;20204;-73
2023/04/28 04:51:05;;;;;;;1.77;1.40;;;;;;;6.87;100.00;99642.22;5130692;27;20716;-73
2023/04/28 04:53:32;;;;;;;1.47;1.33;;;;;;;6.74;100.00;99641.94;5130781;27;20590;-73
2023/04/28 04:56:00;;;;;;;1.53;1.43;;;;;;;7.06;100.00;99647.22;5130690;27;20220;-74
2023/04/28 04:58:27;;;;;;;2.70;2.23;;;;;;;7.05;100.00;99653.19;5130704;27;20207;-74
2023/04/28 05:00:54;;;;;;;2.27;1.73;;;;;;;7.16;100.00;99644.16;5130689;28;20227;-74
2023/04/28 05:03:20;;;;;;;2.30;1.67;;;;;;;7.22;100.00;99651.47;5130661;28;20253;-74
2023/04/28 05:05:47;;;;;;;1.83;1.67;;;;;;;7.40;100.00;99657.38;5130420;28;20232;-74
2023/04/28 05:08:16;;;;;;;4.03;2.10;;;;;;;7.52;100.00;99660.19;5130960;28;20625;-74
2023/04/28 05:10:42;;;;;;;2.20;1.97;;;;;;;7.62;100.00;99666.44;5130690;28;20216;-74
2023/04/28 05:13:09;;;;;;;3.13;1.97;;;;;;;7.73;100.00;99664.19;5130540;27;20200;-73
2023/04/28 05:15:36;;;;;;;3.03;2.13;;;;;;;7.72;100.00;99660.00;5130734;28;20258;-74
2023/04/28 05:18:08;;;;;;;1.50;1.10;;;;;;;7.79;100.00;99663.88;5130673;27;20257;-74
2023/04/28 05:20:35;;;;;;;2.20;1.63;;;;;;;7.87;100.00;99666.03;5130378;28;20220;-74
2023/04/28 05:23:02;;;;;;;2.53;1.80;;;;;;;7.66;100.00;99675.59;5130371;27;20203;-74
2023/04/28 05:25:30;;;;;;;1.23;1.13;;;;;;;7.83;100.00;99667.09;5130452;28;20242;-73
2023/04/28 05:27:57;;;;;;;1.40;1.23;;;;;;;7.85;100.00;99663.56;5130387;28;20659;-74
2023/04/28 05:30:24;;;;;;;2.80;1.77;;;;;;;7.79;100.00;99671.50;5130398;28;20227;-74
2023/04/28 05:32:51;;;;;;;1.87;1.20;;;;;;;7.83;100.00;99675.56;5130535;28;20268;-74
2023/04/28 05:35:19;;;;;;;2.70;1.83;;;;;;;7.93;100.00;99676.72;5130302;28;20220;-74
2023/04/28 05:37:46;;;;;;;2.03;1.50;;;;;;;8.10;100.00;99687.75;5130279;28;20236;-74
2023/04/28 05:40:13;;;;;;;1.73;1.63;;;;;;;8.19;100.00;99692.34;5130406;27;20227;-74
2023/04/28 05:42:41;;;;;;;3.90;1.57;;;;;;;7.99;100.00;99695.13;5134372;27;20207;-73
2023/04/28 05:45:09;;;;;;;1.70;1.47;;;;;;;8.27;100.00;99702.97;5134307;27;20672;-74
2023/04/28 05:47:36;;;;;;;4.03;1.90;;;;;;;8.30;100.00;99705.34;5134135;27;20208;-74
2023/04/28 05:50:03;;;;;;;3.10;1.83;;;;;;;8.49;100.00;99701.84;5133988;27;20231;-74
2023/04/28 05:52:30;;;;;;;3.67;1.97;;;;;;;8.60;100.00;99702.09;5134236;27;20560;-74
2023/04/28 05:54:56;;;;;;;1.67;1.57;;;;;;;8.63;100.00;99706.22;5133998;27;20229;-73
2023/04/28 05:57:23;;;;;;;2.40;1.53;;;;;;;8.51;100.00;99711.06;5134220;27;20541;-74
2023/04/28 05:59:52;;;;;;;3.03;1.97;;;;;;;8.41;100.00;99716.72;5133912;27;20227;-74
2023/04/28 06:02:18;;;;;;;2.70;1.60;;;;;;;8.67;100.00;99722.97;5134111;27;20199;-74
2023/04/28 06:04:45;;;;;;;2.73;2.27;;;;;;;8.63;100.00;99722.31;5133730;27;20252;-76
2023/04/28 06:07:12;;;;;;;4.40;2.00;;;;;;;9.13;100.00;99723.81;5133659;27;20201;-76
2023/04/28 06:09:39;;;;;;;1.87;1.47;;;;;;;9.25;100.00;99725.69;5134135;27;20223;-76
2023/04/28 06:12:06;;;;;;;2.43;1.63;;;;;;;10.09;100.00;99717.38;5133898;27;20659;-76
2023/04/28 06:14:34;;;;;;;3.33;1.90;;;;;;;10.89;100.00;99735.53;5133452;27;20757;-76
2023/04/28 06:17:03;;;;;;;5.27;2.53;;;;;;;11.50;95.08;99734.13;5133756;27;20201;-73
2023/04/28 06:19:30;;;;;;;3.03;2.30;;;;;;;11.96;92.10;99728.53;5133552;27;20232;-74
2023/04/28 06:21:56;;;;;;;2.70;1.90;;;;;;;11.81;89.55;99724.44;5133550;27;20257;-74
2023/04/28 06:24:23;;;;;;;3.00;2.13;;;;;;;11.62;90.53;99731.69;5133191;27;20220;-75
2023/04/28 06:26:50;;;;;;;1.87;1.60;;;;;;;11.67;92.48;99733.03;5133461;27;20300;-75
2023/04/28 06:29:17;;;;;;;2.47;1.97;;;;;;;12.12;90.92;99730.88;5133458;27;20213;-76
2023/04/28 06:31:43;;;;;;;3.90;2.10;;;;;;;12.66;89.91;99727.16;5133302;27;20197;-76
2023/04/28 06:34:12;;;;;;;4.33;2.30;;;;;;;12.82;90.17;99730.25;5133264;27;20295;-76
2023/04/28 06:36:38;;;;;;;3.90;2.40;;;;;;;13.27;86.25;99735.63;5133274;27;20197;-76
2023/04/28 06:39:05;;;;;;;4.43;2.67;;;;;;;13.04;88.28;99733.88;5133308;27;20193;-76
2023/04/28 06:41:32;;;;;;;3.50;2.37;;;;;;;13.51;91.99;99732.19;5133100;27;20203;-76
2023/04/28 06:43:59;;;;;;;3.13;2.67;;;;;;;13.46;88.49;99739.41;5133040;27;20665;-76
2023/04/28 06:46:25;;;;;;;6.60;2.30;;;;;;;13.90;83.19;99730.13;5133243;27;20237;-76
2023/04/28 06:48:52;;;;;;;3.70;2.43;;;;;;;13.95;81.45;99733.16;5133042;27;20196;-76
2023/04/28 06:51:20;;;;;;;3.53;2.43;;;;;;;13.46;79.08;99737.66;5132847;27;20207;-76
2023/04/28 06:53:50;;;;;;;3.67;2.30;;;;;;;13.88;81.20;99739.72;5133041;27;20193;-76
2023/04/28 06:56:16;;;;;;;1.90;1.60;;;;;;;13.68;80.92;99736.88;5132916;27;20313;-75
2023/04/28 06:58:43;;;;;;;4.50;2.07;;;;;;;13.51;77.71;99740.69;5132933;27;20201;-76
2023/04/28 07:01:10;;;;;;;3.80;2.67;;;;;;;12.34;82.86;99735.34;5133088;27;20218;-76
2023/04/28 07:03:38;;;;;;;3.47;2.20;;;;;;;12.49;85.41;99737.78;5132683;27;20202;-76
2023/04/28 07:06:05;;;;;;;2.43;1.80;;;;;;;12.69;88.80;99734.63;5132470;27;20234;-76
2023/04/28 07:08:33;;;;;;;3.97;2.43;;;;;;;12.57;85.55;99735.50;5132707;27;20198;-75
2023/04/28 07:11:03;;;;;;;3.43;2.00;;;;;;;12.88;84.94;99737.53;5132582;27;20271;-76
2023/04/28 07:13:29;;;;;;;3.77;2.47;;;;;;;12.81;91.31;99736.34;5132598;27;20198;-76
2023/04/28 07:15:56;;;;;;;3.30;2.37;;;;;;;12.83;92.26;99738.81;5133301;27;20607;-77
2023/04/28 07:18:23;;;;;;;3.27;2.27;;;;;;;12.83;90.06;99742.19;5132461;27;20191;-77
2023/04/28 07:20:51;;;;;;;3.13;2.37;;;;;;;13.11;83.76;99742.75;5132318;27;20729;-77
2023/04/28 07:23:17;;;;;;;1.70;1.60;;;;;;;13.79;84.47;99736.09;5132361;27;20292;-76
2023/04/28 07:25:45;;;;;;;4.30;2.50;;;;;;;13.59;75.91;99745.28;5132044;27;20235;-76
2023/04/28 07:28:13;;;;;;;3.90;2.63;;;;;;;13.56;78.88;99746.31;5132294;27;20663;-74
2023/04/28 07:30:40;;;;;;;3.47;2.20;;;;;;;13.73;72.28;99734.78;5131888;27;20223;-75
2023/04/28 07:33:07;;;;;;;1.93;1.63;;;;;;;14.26;73.40;99739.34;5132329;27;20636;-74
2023/04/28 07:35:34;;;;;;;2.70;2.30;;;;;;;14.01;70.91;99742.97;5132181;27;20226;-74
2023/04/28 07:38:02;;;;;;;2.83;2.40;;;;;;;13.90;72.74;99740.41;5132356;27;20201;-74
2023/04/28 07:40:29;;;;;;;4.97;2.47;;;;;;;14.95;75.64;99751.97;5131910;27;20220;-74
2023/04/28 07:42:57;;;;;;;2.10;1.83;;;;;;;14.97;64.71;99744.94;5131799;27;20804;-74
2023/04/28 07:45:24;;;;;;;3.33;2.10;;;;;;;14.61;60.72;99754.66;5131681;27;20279;-74
2023/04/28 07:47:50;;;;;;;3.67;2.33;;;;;;;14.45;71.36;99749.03;5131755;27;20197;-74
2023/04/28 07:50:17;;;;;;;3.60;2.27;;;;;;;14.64;70.66;99753.59;5131965;27;20227;-75
2023/04/28 07:52:44;;;;;;;4.10;2.43;;;;;;;14.53;72.39;99746.72;5131673;27;20648;-76
2023/04/28 07:55:11;;;;;;;3.83;2.40;;;;;;;14.78;72.67;99750.75;5131602;27;20722;-75
2023/04/28 07:57:38;;;;;;;3.97;2.43;;;;;;;14.25;76.19;99743.69;5131604;27;20208;-74
2023/04/28 08:00:08;;;;;;;2.47;2.00;;;;;;;14.39;75.51;99750.31;5131548;27;20286;-74
2023/04/28 08:02:35;;;;;;;4.60;2.50;;;;;;;14.49;69.05;99740.16;5131585;27;20197;-74
2023/04/28 08:05:02;;;;;;;3.33;2.40;;;;;;;15.50;70.28;99742.34;5130784;27;20235;-75
2023/04/28 08:07:29;;;;;;;2.63;2.20;;;;;;;14.49;65.35;99745.28;5131379;27;20804;-75
2023/04/28 08:09:55;;;;;;;2.63;1.87;;;;;;;15.07;67.24;99745.06;5131371;27;20224;-74
2023/04/28 08:12:22;;;;;;;2.83;1.97;;;;;;;15.71;60.83;99750.13;5131308;27;20196;-74
2023/04/28 08:14:49;;;;;;;2.57;2.07;;;;;;;15.61;55.43;99744.88;5131207;27;20224;-74
2023/04/28 08:17:18;;;;;;;2.77;1.93;;;;;;;15.76;60.08;99739.41;5131454;27;20202;-74
2023/04/28 08:19:46;;;;;;;6.30;2.57;;;;;;;16.37;59.66;99739.38;5131116;27;20736;-74
2023/04/28 08:22:12;;;;;;;2.40;1.70;;;;;;;16.65;50.27;99739.59;5131497;27;20199;-75
2023/04/28 08:24:40;;;;;;;5.37;2.03;;;;;;;16.38;57.38;99735.88;5131077;27;20274;-75
2023/04/28 08:27:07;;;;;;;3.13;2.23;;;;;;;16.64;56.03;99743.09;5130987;27;20228;-75
2023/04/28 08:29:34;;;;;;;2.27;2.07;;;;;;;16.20;54.02;99735.69;5130933;27;20233;-75
2023/04/28 08:32:01;;;;;;;2.03;1.83;;;;;;;16.61;57.77;99733.03;5131586;27;20224;-75
2023/04/28 08:34:29;;;;;;;2.30;1.73;;;;;;;17.20;46.32;99739.91;5131090;27;20233;-75
2023/04/28 08:36:56;;;;;;;2.90;1.83;;;;;;;16.56;47.33;99735.22;5131159;27;20595;-76
2023/04/28 08:39:22;;;;;;;3.30;1.90;;;;;;;17.40;51.21;99733.75;5131062;27;20232;-75
2023/04/28 08:41:50;;;;;;;4.33;1.70;;;;;;;16.41;46.21;99733.03;5130934;27;20207;-76
2023/04/28 08:44:17;;;;;;;1.97;1.60;;;;;;;15.92;51.42;99729.47;5130656;27;20219;-76
2023/04/28 08:46:45;;;;;;;3.37;1.70;;;;;;;16.75;52.41;99724.91;5131040;27;20769;-75
2023/04/28 08:49:14;;;;;;;3.27;1.90;;;;;;;17.47;52.30;99730.63;5131195;27;20224;-76
2023/04/28 08:51:47;;;;;;;2.13;1.77;;;;;;;17.54;48.04;99734.25;5131159;27;20208;-75
2023/04/28 08:54:16;;;;;;;2.03;1.73;;;;;;;16.89;52.49;99734.88;5130578;27;20221;-75
2023/04/28 08:56:44;;;;;;;2.53;1.50;;;;;;;17.07;47.53;99734.19;5131058;27;20198;-75
2023/04/28 08:59:12;;;;;;;1.90;1.40;;;;;;;17.37;45.81;99731.47;5130669;27;20274;-75
2023/04/28 09:01:39;;;;;;;3.03;1.70;;;;;;;17.83;44.72;99726.44;5130708;27;20197;-75
2023/04/28 09:04:06;;;;;;;2.87;1.90;;;;;;;17.27;44.32;99728.06;5130481;28;20226;-75
2023/04/28 09:06:36;;;;;;;3.10;1.70;;;;;;;16.16;50.23;99718.00;5130584;28;20247;-76
2023/04/28 09:09:25;;;;;;;1.77;1.60;;;;;;;17.38;49.69;99712.41;5130635;28;20204;-75
2023/04/28 09:11:54;;;;;;;3.70;1.70;;;;;;;16.88;51.77;99710.00;5130649;27;20233;-75
2023/04/28 09:14:21;;;;;;;4.77;1.90;;;;;;;17.73;44.91;99705.78;5130544;27;20679;-75
2023/04/28 09:16:48;;;;;;;2.90;2.03;;;;;;;18.65;48.68;99712.69;5133340;27;20212;-75
2023/04/28 09:19:16;;;;;;;3.93;1.70;;;;;;;18.96;44.42;99710.53;5134456;27;20217;-76
2023/04/28 09:21:50;;;;;;;3.13;2.00;;;;;;;18.74;50.95;99706.66;5134858;27;20262;-76
2023/04/28 09:24:38;;;;;;;2.10;1.70;;;;;;;19.10;46.20;99700.63;5134713;27;20621;-76
2023/04/28 09:27:09;;;;;;;2.60;1.60;;;;;;;17.92;46.86;99704.94;5134630;27;20234;-76
2023/04/28 09:29:36;;;;;;;2.90;1.90;;;;;;;16.90;48.39;99702.94;5134300;27;20651;-76
2023/04/28 09:32:14;;;;;;;2.17;1.80;;;;;;;16.87;50.24;99700.63;5134595;27;20445;-75
2023/04/28 09:34:45;;;;;;;2.97;1.93;;;;;;;16.44;47.55;99696.63;5134441;27;20221;-75
2023/04/28 09:37:16;;;;;;;3.23;1.90;;;;;;;16.63;45.25;99689.84;5134373;27;20208;-75
2023/04/28 09:39:45;;;;;;;4.50;2.20;;;;;;;14.79;49.25;99695.75;5134406;27;20249;-75
2023/04/28 09:42:31;;;;;;;2.63;1.80;;;;;;;16.28;50.47;99691.16;5134508;27;20204;-76
2023/04/28 09:44:58;;;;;;;1.83;1.50;;;;;;;15.19;47.40;99691.72;5134160;27;20224;-77
2023/04/28 09:47:25;;;;;;;2.27;1.83;;;;;;;15.69;48.80;99689.31;5134539;27;20260;-76
2023/04/28 09:49:55;;;;;;;2.37;1.90;;;;;;;15.91;50.96;99691.72;5134416;27;20479;-76
2023/04/28 09:52:23;;;;;;;2.23;1.70;;;;;;;15.77;48.22;99692.09;5134216;27;20196;-76
2023/04/28 09:54:52;;;;;;;2.20;1.70;;;;;;;16.19;49.26;99691.94;5134688;27;20221;-77
2023/04/28 09:57:20;;;;;;;2.17;1.90;;;;;;;16.56;53.64;99691.34;5133984;27;20204;-77
2023/04/28 09:59:49;;;;;;;2.97;2.00;;;;;;;16.63;48.62;99684.69;5134064;27;20221;-76
2023/04/28 10:02:16;;;;;;;4.97;1.50;;;;;;;16.39;46.61;99688.44;5134930;27;20208;-76
2023/04/28 10:04:45;;;;;;;3.20;2.10;;;;;;;16.77;49.15;99676.56;5133911;27;20234;-76
2023/04/28 10:07:12;;;;;;;4.03;2.03;;;;;;;16.33;44.83;99673.50;5135137;27;20708;-76
2023/04/28 10:09:42;;;;;;;3.00;1.70;;;;;;;15.21;50.85;99675.19;5134081;27;20233;-76
2023/04/28 10:12:11;;;;;;;1.70;1.50;;;;;;;16.66;48.08;99674.06;5133773;27;20206;-77
2023/04/28 10:14:38;;;;;;;3.20;1.30;;;;;;;16.73;47.96;99675.19;5133900;27;20224;-76
2023/04/28 10:17:06;;;;;;;3.43;1.90;;;;;;;15.39;45.66;99675.44;5133623;27;20605;-77
2023/04/28 10:19:33;;;;;;;2.00;1.80;;;;;;;15.81;46.92;99668.47;5133465;27;20253;-77
2023/04/28 10:22:21;;;;;;;2.23;1.53;;;;;;;16.10;48.82;99672.09;5133684;27;20201;-77
2023/04/28 10:25:03;;;;;;;1.83;1.53;;;;;;;16.64;47.76;99670.81;5133723;27;20226;-77
2023/04/28 10:27:33;;;;;;;2.93;1.90;;;;;;;16.67;47.07;99671.38;5132990;27;20214;-76
2023/04/28 10:30:14;;;;;;;3.87;2.07;;;;;;;16.14;48.69;99669.09;5133562;27;20218;-77
2023/04/28 10:32:41;;;;;;;3.73;1.60;;;;;;;16.53;46.02;99669.19;5133419;27;20573;-77
2023/04/28 10:35:42;;;;;;;2.43;1.70;;;;;;;16.78;44.40;99661.88;5133147;27;20223;-77
2023/04/28 10:38:11;;;;;;;2.30;1.67;;;;;;;16.91;43.31;99665.00;5049419;28;20760;-77
2023/04/28 10:40:39;;;;;;;2.63;1.53;;;;;;;17.08;45.74;99653.16;5049527;28;20728;-77
2023/04/28 10:43:09;;;;;;;2.33;1.63;;;;;;;17.80;45.25;99655.16;5088832;27;20199;-77
2023/04/28 10:46:15;;;;;;;3.67;1.47;;;;;;;17.95;46.72;99644.31;5133006;27;20221;-77
2023/04/28 10:48:56;;;;;;;4.53;2.00;;;;;;;17.02;43.75;99651.13;5133262;27;20216;-77
2023/04/28 10:51:30;;;;;;;3.93;1.67;;;;;;;17.43;42.48;99637.84;5133052;27;20665;-76
2023/04/28 10:54:17;;;;;;;1.97;1.43;;;;;;;16.31;44.08;99644.44;5132970;27;20280;-77
2023/04/28 10:57:23;;;;;;;1.60;1.50;;;;;;;16.56;46.30;99653.44;5132908;27;20210;-76
2023/04/28 10:59:51;;;;;;;2.20;1.60;;;;;;;16.68;44.18;99641.19;5132861;27;20226;-76
2023/04/28 11:02:48;;;;;;;2.63;1.60;;;;;;;16.98;48.34;99638.47;5132636;27;20211;-76
2023/04/28 11:05:17;;;;;;;2.27;1.70;;;;;;;17.13;44.29;99640.63;5132573;27;20227;-77
2023/04/28 11:08:35;;;;;;;1.73;1.40;;;;;;;16.84;44.83;99635.50;5132570;27;20225;-77
2023/04/28 11:11:19;;;;;;;2.33;1.73;;;;;;;16.74;45.67;99635.50;5133174;27;20224;-76
2023/04/28 11:13:47;;;;;;;3.13;1.83;;;;;;;16.48;47.04;99625.69;5132630;27;20236;-76
2023/04/28 11:16:21;;;;;;;2.47;1.57;;;;;;;16.70;48.50;99628.97;5132719;27;20289;-77
2023/04/28 11:18:53;;;;;;;2.23;1.63;;;;;;;16.83;44.78;99623.56;5132746;27;20194;-76
2023/04/28 11:21:21;;;;;;;2.03;1.50;;;;;;;16.92;47.36;99620.94;5132466;27;20462;-76
2023/04/28 11:23:48;;;;;;;1.90;1.57;;;;;;;16.78;43.03;99620.56;5132726;27;20196;-76
2023/04/28 11:26:16;;;;;;;3.93;1.70;;;;;;;16.51;44.63;99615.09;5132318;27;20209;-76
2023/04/28 11:28:51;;;;;;;3.20;1.70;;;;;;;16.62;49.13;99616.75;5132285;27;20310;-77
2023/04/28 11:31:22;;;;;;;1.70;1.50;;;;;;;16.54;45.80;99606.28;5132182;27;20260;-76
2023/04/28 11:33:52;;;;;;;2.33;1.80;;;;;;;16.36;44.61;99620.81;5132715;27;20563;-76
2023/04/28 11:36:28;;;;;;;2.57;1.60;;;;;;;16.07;46.06;99612.06;5132251;27;20215;-76
2023/04/28 11:38:56;;;;;;;2.30;1.73;;;;;;;16.01;45.32;99612.59;5131001;27;20239;-77
2023/04/28 11:41:23;;;;;;;2.07;1.70;;;;;;;16.10;46.72;99620.50;5132344;27;20639;-77